createdAt,value
2022-09-30T00:02:25.848Z,11.14
2022-09-30T00:07:31.240Z,11.09
2022-09-30T00:12:36.866Z,11.08
2022-09-30T00:17:42.316Z,11.06
2022-09-30T00:22:47.698Z,11.04
2022-09-30T00:27:53.080Z,11.06
2022-09-30T00:32:58.477Z,11.00
2022-09-30T00:38:03.869Z,10.78
2022-09-30T00:43:19.369Z,10.72
2022-09-30T00:48:30.720Z,10.73
2022-09-30T00:53:39.142Z,10.62
2022-09-30T00:58:51.491Z,10.60
2022-09-30T01:03:59.923Z,10.50
2022-09-30T01:09:06.066Z,10.45
2022-09-30T01:14:17.470Z,10.40
2022-09-30T01:19:55.452Z,10.37
2022-09-30T01:25:37.474Z,10.36
2022-09-30T01:31:03.989Z,10.24
2022-09-30T01:36:30.418Z,10.09
2022-09-30T01:41:47.637Z,10.01
2022-09-30T01:47:05.279Z,9.99
2022-09-30T01:52:29.835Z,9.95
2022-09-30T01:57:41.074Z,9.93
2022-09-30T02:03:04.547Z,9.88
2022-09-30T02:08:12.991Z,9.83
2022-09-30T02:13:40.635Z,9.80
2022-09-30T02:19:05.645Z,9.76
2022-09-30T02:24:14.064Z,9.75
2022-09-30T02:29:25.263Z,9.73
2022-09-30T02:34:34.362Z,9.68
2022-09-30T02:39:51.586Z,9.64
2022-09-30T02:45:08.108Z,9.65
2022-09-30T02:50:25.303Z,9.62
2022-09-30T02:55:33.723Z,9.62
2022-09-30T03:00:39.709Z,9.63
2022-09-30T03:05:46.068Z,9.63
2022-09-30T03:10:53.071Z,9.63
2022-09-30T03:16:13.814Z,9.56
2022-09-30T03:21:44.954Z,9.55
2022-09-30T03:27:13.002Z,9.49
2022-09-30T03:32:41.189Z,9.38
2022-09-30T03:38:06.323Z,9.33
2022-09-30T03:43:14.836Z,9.26
2022-09-30T03:48:23.133Z,9.23
2022-09-30T03:53:29.362Z,9.16
2022-09-30T03:58:36.391Z,9.14
2022-09-30T04:03:41.784Z,9.11
2022-09-30T04:08:47.167Z,9.01
2022-09-30T04:13:52.614Z,8.92
2022-09-30T04:18:57.983Z,8.87
2022-09-30T04:24:03.468Z,8.86
2022-09-30T04:29:08.843Z,8.86
2022-09-30T04:34:14.221Z,8.90
2022-09-30T04:39:20.599Z,8.86
2022-09-30T04:44:26.161Z,8.80
2022-09-30T04:49:31.624Z,8.75
2022-09-30T04:54:37.095Z,8.67
2022-09-30T04:59:44.194Z,8.68
2022-09-30T05:04:49.589Z,8.66
2022-09-30T05:09:55.053Z,8.68
2022-09-30T05:15:00.444Z,8.65
2022-09-30T05:20:08.275Z,8.64
2022-09-30T05:25:13.855Z,8.66
2022-09-30T05:30:19.762Z,8.67
2022-09-30T05:35:25.205Z,8.66
2022-09-30T05:40:30.659Z,8.55
2022-09-30T05:45:36.399Z,8.61
2022-09-30T05:50:41.771Z,8.70
2022-09-30T05:55:48.503Z,7.88
2022-09-30T06:00:54.017Z,9.01
2022-09-30T06:05:59.744Z,9.06
2022-09-30T06:11:14.037Z,9.14
2022-09-30T06:16:20.359Z,9.51
2022-09-30T06:21:26.208Z,9.47
2022-09-30T06:26:31.863Z,9.57
2022-09-30T06:31:37.392Z,9.68
2022-09-30T06:36:42.868Z,9.78
2022-09-30T06:41:48.542Z,9.87
2022-09-30T06:46:56.301Z,10.04
2022-09-30T06:52:02.492Z,10.24
2022-09-30T06:57:07.920Z,10.39
2022-09-30T07:02:13.634Z,10.57
2022-09-30T07:07:20.929Z,10.75
2022-09-30T07:12:27.049Z,10.96
2022-09-30T07:17:32.446Z,11.17
2022-09-30T07:22:37.837Z,11.37
2022-09-30T07:27:44.049Z,11.59
2022-09-30T07:32:50.273Z,11.83
2022-09-30T07:37:55.731Z,12.05
2022-09-30T07:43:01.996Z,12.30
2022-09-30T07:48:09.057Z,12.56
2022-09-30T07:53:14.506Z,12.83
2022-09-30T07:58:19.952Z,13.12
2022-09-30T08:03:26.654Z,13.31
2022-09-30T08:08:32.105Z,13.49
2022-09-30T08:13:38.023Z,13.61
2022-09-30T08:18:43.414Z,13.70
2022-09-30T08:23:48.823Z,13.73
2022-09-30T08:28:55.074Z,13.99
2022-09-30T08:34:03.279Z,14.14
2022-09-30T08:39:10.326Z,14.32
2022-09-30T08:44:41.992Z,14.44
2022-09-30T08:49:59.436Z,14.52
2022-09-30T08:55:06.995Z,14.67
2022-09-30T09:00:16.327Z,14.73
2022-09-30T09:05:39.678Z,14.88
2022-09-30T09:10:48.473Z,14.95
2022-09-30T09:15:59.987Z,15.06
2022-09-30T09:21:17.434Z,15.06
2022-09-30T09:26:24.246Z,15.20
2022-09-30T09:31:29.908Z,15.35
2022-09-30T09:36:44.164Z,15.41
2022-09-30T09:41:55.603Z,15.47
2022-09-30T09:47:17.535Z,15.49
2022-09-30T09:52:43.722Z,15.59
2022-09-30T09:57:50.140Z,15.71
2022-09-30T10:03:08.517Z,15.73
2022-09-30T10:08:22.955Z,15.70
2022-09-30T10:13:34.056Z,15.82
2022-09-30T10:18:40.697Z,15.89
2022-09-30T10:23:46.237Z,16.02
2022-09-30T10:28:57.087Z,16.31
2022-09-30T10:34:28.416Z,16.50
2022-09-30T10:39:42.124Z,17.59
2022-09-30T10:44:50.669Z,16.82
2022-09-30T10:50:20.718Z,16.75
2022-09-30T10:55:34.658Z,16.88
2022-09-30T11:00:40.227Z,16.96
2022-09-30T11:05:48.652Z,17.05
2022-09-30T11:11:16.958Z,17.24
2022-09-30T11:16:54.298Z,17.36
2022-09-30T11:22:16.552Z,17.43
2022-09-30T11:27:43.200Z,17.51
2022-09-30T11:32:54.870Z,17.38
2022-09-30T11:38:06.108Z,17.43
2022-09-30T11:43:35.703Z,17.67
2022-09-30T11:48:45.408Z,17.77
2022-09-30T11:54:04.573Z,17.93
2022-09-30T11:59:21.691Z,18.17
2022-09-30T12:04:32.955Z,18.33
2022-09-30T12:09:56.816Z,18.39
2022-09-30T12:15:06.019Z,18.61
2022-09-30T12:20:20.533Z,18.69
2022-09-30T12:25:28.969Z,18.43
2022-09-30T12:30:36.662Z,18.59
2022-09-30T12:35:51.188Z,18.89
2022-09-30T12:41:07.809Z,18.90
2022-09-30T12:46:44.737Z,19.15
2022-09-30T12:51:59.109Z,19.17
2022-09-30T12:57:09.375Z,19.24
2022-09-30T13:02:34.062Z,19.22
2022-09-30T13:07:42.528Z,19.38
2022-09-30T13:12:49.661Z,19.39
2022-09-30T13:17:55.228Z,19.26
2022-09-30T13:23:00.696Z,19.49
2022-09-30T13:28:18.227Z,19.63
2022-09-30T13:33:33.303Z,19.75
2022-09-30T13:38:40.807Z,19.66
2022-09-30T13:44:02.660Z,19.51
2022-09-30T13:49:18.545Z,19.66
2022-09-30T13:54:31.577Z,19.77
2022-09-30T13:59:51.640Z,19.91
2022-09-30T14:05:37.701Z,19.88
2022-09-30T14:11:11.565Z,19.93
2022-09-30T14:16:52.044Z,19.89
2022-09-30T14:22:00.871Z,19.92
2022-09-30T14:27:30.859Z,20.13
2022-09-30T14:32:39.688Z,20.20
2022-09-30T14:37:48.275Z,20.23
2022-09-30T14:42:55.576Z,20.15
2022-09-30T14:48:04.027Z,19.98
2022-09-30T14:53:30.492Z,19.91
2022-09-30T14:58:43.323Z,19.89
2022-09-30T15:03:51.759Z,19.79
2022-09-30T15:09:21.409Z,19.73
2022-09-30T15:14:27.717Z,19.65
2022-09-30T15:19:38.434Z,19.61
2022-09-30T15:24:44.997Z,19.60
2022-09-30T15:30:02.197Z,19.57
2022-09-30T15:35:17.108Z,19.53
2022-09-30T15:40:43.456Z,19.53
2022-09-30T15:45:50.243Z,19.53
2022-09-30T15:51:00.519Z,19.48
2022-09-30T15:56:21.176Z,19.38
2022-09-30T16:01:42.240Z,19.35
2022-09-30T16:07:11.324Z,19.22
2022-09-30T16:12:19.762Z,18.99
2022-09-30T16:17:34.113Z,18.56
2022-09-30T16:22:45.402Z,18.27
2022-09-30T16:28:13.461Z,17.95
2022-09-30T16:33:19.638Z,17.69
2022-09-30T16:38:25.039Z,17.35
2022-09-30T16:43:31.483Z,17.14
2022-09-30T16:48:38.523Z,16.87
2022-09-30T16:53:44.366Z,16.57
2022-09-30T16:58:49.771Z,16.33
2022-09-30T17:03:56.689Z,16.12
2022-09-30T17:09:02.451Z,15.84
2022-09-30T17:14:07.866Z,15.63
2022-09-30T17:19:14.273Z,15.38
2022-09-30T17:24:20.043Z,15.18
2022-09-30T17:29:32.281Z,15.00
2022-09-30T17:34:34.405Z,14.87
2022-09-30T17:39:39.948Z,14.69
2022-09-30T17:44:45.511Z,14.53
2022-09-30T17:49:51.131Z,14.38
2022-09-30T17:54:57.003Z,14.23
2022-09-30T18:00:02.731Z,14.13
2022-09-30T18:05:10.054Z,14.05
2022-09-30T18:10:15.455Z,13.98
2022-09-30T18:15:21.028Z,13.90
2022-09-30T18:20:26.420Z,13.83
2022-09-30T18:25:31.836Z,13.77
2022-09-30T18:30:38.270Z,13.70
2022-09-30T18:35:44.138Z,13.65
2022-09-30T18:40:50.196Z,13.58
2022-09-30T18:45:57.972Z,13.57
2022-09-30T18:51:05.228Z,13.55
2022-09-30T18:56:10.635Z,13.54
2022-09-30T19:01:16.954Z,13.59
2022-09-30T19:06:23.134Z,13.66
2022-09-30T19:11:30.689Z,13.71
2022-09-30T19:16:38.984Z,13.77
2022-09-30T19:21:44.895Z,13.81
2022-09-30T19:26:50.456Z,13.87
2022-09-30T19:32:00.617Z,13.94
2022-09-30T19:37:08.564Z,14.01
2022-09-30T19:42:14.538Z,14.07
2022-09-30T19:47:20.014Z,14.10
2022-09-30T19:52:26.421Z,14.13
2022-09-30T19:57:35.204Z,14.16
2022-09-30T20:02:41.364Z,14.18
2022-09-30T20:07:48.546Z,14.19
2022-09-30T20:12:54.629Z,14.21
2022-09-30T20:18:00.016Z,14.24
2022-09-30T20:23:05.486Z,14.28
2022-09-30T20:28:11.116Z,14.30
2022-09-30T20:33:23.546Z,14.88
2022-09-30T20:38:29.309Z,14.52
2022-09-30T20:43:35.643Z,14.43
2022-09-30T20:48:41.393Z,14.39
2022-09-30T20:53:52.239Z,14.32
2022-09-30T20:58:57.803Z,14.31
2022-09-30T21:04:03.619Z,14.27
2022-09-30T21:09:10.509Z,14.25
2022-09-30T21:14:18.605Z,14.23
2022-09-30T21:19:24.062Z,14.24
2022-09-30T21:24:29.431Z,14.19
2022-09-30T21:29:34.949Z,14.18
2022-09-30T21:34:40.714Z,14.18
2022-09-30T21:39:47.752Z,14.20
2022-09-30T21:44:53.164Z,14.20
2022-09-30T21:49:58.620Z,14.19
2022-09-30T21:55:05.722Z,14.21
2022-09-30T22:00:12.368Z,14.19
2022-09-30T22:05:20.731Z,14.16
2022-09-30T22:10:26.119Z,14.15
2022-09-30T22:15:32.076Z,14.18
2022-09-30T22:20:37.634Z,14.15
2022-09-30T22:25:43.281Z,14.15
2022-09-30T22:30:48.676Z,14.19
2022-09-30T22:36:13.697Z,14.21
2022-09-30T22:41:19.181Z,14.19
2022-09-30T22:46:24.615Z,14.14
2022-09-30T22:51:30.693Z,14.11
2022-09-30T22:56:36.445Z,14.06
2022-09-30T23:01:41.890Z,14.08
2022-09-30T23:06:52.499Z,14.03
2022-09-30T23:11:58.235Z,14.01
2022-09-30T23:17:03.623Z,13.97
2022-09-30T23:22:09.008Z,13.95
2022-09-30T23:27:14.403Z,13.94
2022-09-30T23:32:19.893Z,13.91
2022-09-30T23:37:25.464Z,13.88
2022-09-30T23:42:31.332Z,13.85
2022-09-30T23:47:37.359Z,13.80
2022-09-30T23:52:44.685Z,13.78
2022-09-30T23:57:51.771Z,13.73
